Terminal Aerodrome Forecast
Issued by NWS

Home | Current Version | Previous Version | Text Only | Print | Product List | Glossary On
Versions: 1 2 3 4 5 6 7 8 9 10 11 12 13 14 15 16 17 18 19 20 21 22 23 24
000
FTUS46 KSGX 281700
TAFSAN
TAF
KSAN 281722Z 2818/2924 VRB04KT P6SM SKC
     FM290400 18005KT P6SM SCT005
     FM291000 17006KT 5SM BR BKN006
     FM291600 15005KT P6SM FEW008
     FM291900 17008KT P6SM SKC=

USA.gov is the U.S. government's official web portal to all federal, state and local government web resources and services.